Terminal Aerodrome Forecast
Issued by NWS

Home | Current Version | Previous Version | Text Only | Print | Product List | Glossary Off
Versions: 1 2 3 4 5 6 7 8 9 10 11 12 13 14 15 16 17 18 19 20 21 22 23

582
FTUS43 KBIS 251229 AAA
TAFMOT
TAF AMD
KMOT 251229Z 2512/2612 29013KT P6SM VCFG BKN005 OVC110
     FM251400 31007KT 1 1/2SM BR OVC006
     FM251600 32007KT P6SM OVC008
     FM251700 32007KT P6SM OVC010
     FM252100 30008KT P6SM VCSH BKN025
     FM260800 30007KT P6SM SCT100=

USA.gov is the U.S. government's official web portal to all federal, state and local government web resources and services.